Terminal Aerodrome Forecast
Issued by NWS

Home | Current Version | Previous Version | Text Only | Print | Product List | Glossary On
Versions: 1 2 3 4 5 6 7 8 9 10 11 12 13 14 15 16 17 18
000
FTAK31 PAJN 272300
TAFAKT
TAF
PAKT 272325Z 2800/2824 14013G21KT 6SM -RA BR BKN035 OVC050
      WS020/16035KT
     FM280700 14015G25KT 4SM RA BR BKN015 OVC025 WS020/16040KT
     FM281400 14030G40KT 4SM -RA BR BKN015 OVC025 WS020/18050KT
     FM282000 15020G30KT 5SM -SHRA BR VCTS OVC030CB WS020/22035KT
      AMD LTD TO CLD VIS AND WIND 2806/2815=

USA.gov is the U.S. government's official web portal to all federal, state and local government web resources and services.